createdAt,value
2023-05-19T00:00:25.748Z,6.3
2023-05-19T00:01:25.744Z,6.3
2023-05-19T00:02:25.802Z,6.3
2023-05-19T00:03:25.772Z,6.3
2023-05-19T00:04:25.744Z,6.3
2023-05-19T00:05:27.461Z,6.3
2023-05-19T00:06:30.442Z,6.3
2023-05-19T00:08:25.742Z,6.2
2023-05-19T00:09:25.733Z,6.2
2023-05-19T00:10:25.764Z,6.2
2023-05-19T00:11:25.757Z,6.2
2023-05-19T00:12:25.754Z,6.2
2023-05-19T00:13:25.742Z,6.2
2023-05-19T00:14:25.760Z,6.2
2023-05-19T00:15:25.746Z,6.2
2023-05-19T00:16:25.772Z,6.1
2023-05-19T00:17:25.814Z,6.1
2023-05-19T00:18:25.742Z,6.1
2023-05-19T00:19:25.853Z,6.1
2023-05-19T00:20:25.749Z,6.1
2023-05-19T00:21:25.743Z,6.1
2023-05-19T00:22:25.732Z,6.1
2023-05-19T00:23:25.735Z,6.1
2023-05-19T00:24:25.766Z,6.1
2023-05-19T00:25:25.738Z,6.1
2023-05-19T00:26:27.479Z,6.1
2023-05-19T00:27:30.500Z,6.1
2023-05-19T00:28:25.740Z,6.1
2023-05-19T00:29:25.752Z,6.1
2023-05-19T00:30:25.743Z,6
2023-05-19T00:31:25.789Z,6
2023-05-19T00:32:25.750Z,6
2023-05-19T00:33:25.742Z,6
2023-05-19T00:34:25.747Z,6
2023-05-19T00:35:25.735Z,6
2023-05-19T00:36:25.774Z,6
2023-05-19T00:37:25.739Z,6
2023-05-19T00:38:25.754Z,6
2023-05-19T00:39:25.745Z,6
2023-05-19T00:40:25.735Z,5.9
2023-05-19T00:41:25.755Z,5.9
2023-05-19T00:42:25.737Z,5.9
2023-05-19T00:43:25.739Z,5.9
2023-05-19T00:44:25.743Z,5.8
2023-05-19T00:45:25.742Z,5.8
2023-05-19T00:46:25.788Z,5.8
2023-05-19T00:47:25.777Z,5.7
2023-05-19T00:48:27.581Z,5.7
2023-05-19T00:49:30.646Z,5.7
2023-05-19T00:50:25.747Z,5.7
2023-05-19T00:51:25.735Z,5.7
2023-05-19T00:52:25.734Z,5.7
2023-05-19T00:53:25.763Z,5.7
2023-05-19T00:54:25.737Z,5.7
2023-05-19T00:55:25.738Z,5.7
2023-05-19T00:56:25.740Z,5.7
2023-05-19T00:57:25.735Z,5.7
2023-05-19T00:58:25.784Z,5.6
2023-05-19T00:59:25.732Z,5.6
2023-05-19T01:00:25.741Z,5.6
2023-05-19T01:01:25.810Z,5.6
2023-05-19T01:02:25.794Z,5.6
2023-05-19T01:03:25.804Z,5.6
2023-05-19T01:04:25.778Z,5.6
2023-05-19T01:05:25.741Z,5.6
2023-05-19T01:06:25.732Z,5.6
2023-05-19T01:07:25.738Z,5.6
2023-05-19T01:08:25.776Z,5.6
2023-05-19T01:09:27.768Z,5.6
2023-05-19T01:10:30.950Z,5.6
2023-05-19T01:11:25.744Z,5.5
2023-05-19T01:12:25.737Z,5.5
2023-05-19T01:13:25.753Z,5.5
2023-05-19T01:14:25.735Z,5.4
2023-05-19T01:15:25.739Z,5.4
2023-05-19T01:16:25.756Z,5.4
2023-05-19T01:17:25.745Z,5.3
2023-05-19T01:18:25.760Z,5.3
2023-05-19T01:19:25.850Z,5.3
2023-05-19T01:20:25.738Z,5.2
2023-05-19T01:21:25.740Z,5.2
2023-05-19T01:22:25.742Z,5.2
2023-05-19T01:23:25.756Z,5.2
2023-05-19T01:25:25.748Z,5.2
2023-05-19T01:26:25.752Z,5.2
2023-05-19T01:28:25.747Z,5.2
2023-05-19T01:29:25.740Z,5.2
2023-05-19T01:30:27.867Z,5.2
2023-05-19T01:31:30.898Z,5.2
2023-05-19T01:32:25.764Z,5.2
2023-05-19T01:33:25.739Z,5.2
2023-05-19T01:34:25.742Z,5.2
2023-05-19T01:35:25.763Z,5.2
2023-05-19T01:36:25.740Z,5.2
2023-05-19T01:37:25.855Z,5.2
2023-05-19T01:38:25.734Z,5.2
2023-05-19T01:39:25.744Z,5.2
2023-05-19T01:40:25.738Z,5.2
2023-05-19T01:41:25.744Z,5.2
2023-05-19T01:42:25.742Z,5.2
2023-05-19T01:43:25.742Z,5.2
2023-05-19T01:44:25.740Z,5.2
2023-05-19T01:45:25.746Z,5.1
2023-05-19T01:46:25.813Z,5.1
2023-05-19T01:47:25.789Z,5.1
2023-05-19T01:48:25.740Z,5.1
2023-05-19T01:49:25.744Z,5.1
2023-05-19T01:50:25.766Z,5.1
2023-05-19T01:51:27.383Z,5.1
2023-05-19T01:52:30.466Z,5.1
2023-05-19T01:53:25.750Z,5.1
2023-05-19T01:54:25.747Z,5.1
2023-05-19T01:55:25.774Z,5.1
2023-05-19T01:56:25.740Z,5
2023-05-19T01:57:25.742Z,5
2023-05-19T01:58:25.931Z,5
2023-05-19T01:59:25.743Z,5
2023-05-19T02:00:25.763Z,5
2023-05-19T02:01:25.802Z,5
2023-05-19T02:02:25.760Z,4.9
2023-05-19T02:03:25.742Z,4.9
2023-05-19T02:04:25.781Z,4.9
2023-05-19T02:05:25.758Z,4.9
2023-05-19T02:06:25.749Z,4.9
2023-05-19T02:07:25.756Z,4.9
2023-05-19T02:08:25.747Z,4.8
2023-05-19T02:09:25.740Z,4.8
2023-05-19T02:10:25.750Z,4.8
2023-05-19T02:11:25.745Z,4.8
2023-05-19T02:12:28.008Z,4.8
2023-05-19T02:13:31.066Z,4.8
2023-05-19T02:14:25.755Z,4.8
2023-05-19T02:15:25.763Z,4.8
2023-05-19T02:16:26.036Z,4.8
2023-05-19T02:17:25.778Z,4.8
2023-05-19T02:18:25.745Z,4.8
2023-05-19T02:19:26.025Z,4.8
2023-05-19T02:20:25.762Z,4.8
2023-05-19T02:21:25.752Z,4.8
2023-05-19T02:22:25.733Z,4.8
2023-05-19T02:23:25.737Z,4.8
2023-05-19T02:24:25.743Z,4.8
2023-05-19T02:25:25.768Z,4.7
2023-05-19T02:26:25.752Z,4.7
2023-05-19T02:27:25.743Z,4.7
2023-05-19T02:28:25.738Z,4.7
2023-05-19T02:29:25.738Z,4.7
2023-05-19T02:30:25.770Z,4.7
2023-05-19T02:31:25.754Z,4.6
2023-05-19T02:32:25.780Z,4.6
2023-05-19T02:33:28.176Z,4.6
2023-05-19T02:34:31.186Z,4.6
2023-05-19T02:35:25.748Z,4.5
2023-05-19T02:36:25.740Z,4.5
2023-05-19T02:37:25.735Z,4.4
2023-05-19T02:38:25.757Z,4.4
2023-05-19T02:39:25.740Z,4.4
2023-05-19T02:40:25.758Z,4.4
2023-05-19T02:41:25.735Z,4.4
2023-05-19T02:42:25.729Z,4.3
2023-05-19T02:43:25.740Z,4.3
2023-05-19T02:44:25.746Z,4.3
2023-05-19T02:45:25.759Z,4.2
2023-05-19T02:46:25.780Z,4.2
2023-05-19T02:47:25.750Z,4.1
2023-05-19T02:48:25.734Z,4.1
2023-05-19T02:49:25.754Z,4.1
2023-05-19T02:50:25.791Z,4.1
2023-05-19T02:51:25.745Z,4
2023-05-19T02:52:25.740Z,4
2023-05-19T02:53:25.742Z,4
2023-05-19T02:54:27.694Z,4
2023-05-19T02:55:31.214Z,4
2023-05-19T02:56:25.740Z,3.9
2023-05-19T02:57:25.751Z,3.9
2023-05-19T02:58:25.740Z,3.9
2023-05-19T02:59:25.850Z,3.9
2023-05-19T03:00:25.769Z,3.9
2023-05-19T03:01:25.752Z,3.9
2023-05-19T03:02:25.848Z,3.9
2023-05-19T03:03:25.768Z,3.9
2023-05-19T03:04:25.740Z,3.9
2023-05-19T03:05:25.751Z,3.9
2023-05-19T03:06:25.746Z,3.9
2023-05-19T03:07:25.734Z,3.9
2023-05-19T03:08:25.735Z,3.9
2023-05-19T03:09:25.737Z,3.9
2023-05-19T03:10:25.747Z,3.9
2023-05-19T03:11:25.743Z,3.9
2023-05-19T03:12:25.745Z,3.9
2023-05-19T03:13:25.750Z,3.9
2023-05-19T03:14:25.738Z,3.9
2023-05-19T03:15:27.779Z,3.9
2023-05-19T03:16:31.374Z,3.9
2023-05-19T03:17:25.765Z,3.9
2023-05-19T03:18:25.759Z,3.9
2023-05-19T03:19:25.787Z,3.9
2023-05-19T03:20:25.741Z,3.9
2023-05-19T03:21:25.740Z,3.9
2023-05-19T03:22:25.739Z,3.9
2023-05-19T03:23:25.747Z,3.8
2023-05-19T03:24:25.737Z,3.8
2023-05-19T03:25:25.750Z,3.8
2023-05-19T03:26:25.763Z,3.8
2023-05-19T03:27:25.738Z,3.8
2023-05-19T03:28:25.747Z,3.8
2023-05-19T03:29:25.754Z,3.7
2023-05-19T03:30:25.743Z,3.7
2023-05-19T03:31:25.752Z,3.7
2023-05-19T03:32:25.990Z,3.7
2023-05-19T03:33:25.768Z,3.7
2023-05-19T03:34:25.738Z,3.7
2023-05-19T03:35:25.744Z,3.7
2023-05-19T03:36:28.320Z,3.7
2023-05-19T03:37:31.378Z,3.7
2023-05-19T03:38:25.750Z,3.6
2023-05-19T03:39:25.759Z,3.6
2023-05-19T03:40:25.748Z,3.6
2023-05-19T03:41:25.761Z,3.6
2023-05-19T03:42:25.746Z,3.6
2023-05-19T03:43:25.754Z,3.6
2023-05-19T03:44:25.737Z,3.6
2023-05-19T03:45:25.747Z,3.6
2023-05-19T03:46:25.839Z,3.6
2023-05-19T03:47:25.764Z,3.6
2023-05-19T03:48:25.744Z,3.6
2023-05-19T03:49:25.752Z,3.6
2023-05-19T03:50:25.740Z,3.6
2023-05-19T03:51:25.764Z,3.6
2023-05-19T03:52:25.739Z,3.6
2023-05-19T03:53:25.739Z,3.6
2023-05-19T03:54:25.751Z,3.6
2023-05-19T03:55:25.764Z,3.6
2023-05-19T03:56:25.742Z,3.6
2023-05-19T03:57:25.884Z,3.6
2023-05-19T03:58:28.592Z,3.6
2023-05-19T03:59:31.566Z,3.6
2023-05-19T04:00:25.742Z,3.6
2023-05-19T04:01:25.768Z,3.6
2023-05-19T04:02:25.966Z,3.6
2023-05-19T04:03:25.831Z,3.6
2023-05-19T04:04:25.780Z,3.6
2023-05-19T04:05:25.767Z,3.6
2023-05-19T04:06:25.770Z,3.6
2023-05-19T04:07:25.747Z,3.6
2023-05-19T04:08:25.760Z,3.7
2023-05-19T04:09:25.741Z,3.7
2023-05-19T04:10:25.745Z,3.7
2023-05-19T04:11:25.758Z,3.8
2023-05-19T04:12:25.905Z,3.8
2023-05-19T04:13:25.744Z,3.8
2023-05-19T04:14:25.764Z,3.9
2023-05-19T04:15:25.749Z,3.9
2023-05-19T04:16:25.765Z,3.9
2023-05-19T04:18:28.276Z,3.9
2023-05-19T04:19:28.706Z,3.9
2023-05-19T04:20:31.845Z,4
2023-05-19T04:21:25.747Z,4
2023-05-19T04:22:25.758Z,4
2023-05-19T04:23:25.739Z,4.1
2023-05-19T04:24:25.747Z,4.1
2023-05-19T04:25:25.746Z,4.1
2023-05-19T04:26:25.745Z,4.2
2023-05-19T04:27:25.755Z,4.2
2023-05-19T04:28:25.748Z,4.2
2023-05-19T04:29:25.751Z,4.3
2023-05-19T04:30:25.755Z,4.3
2023-05-19T04:31:25.750Z,4.4
2023-05-19T04:32:25.893Z,4.4
2023-05-19T04:33:25.776Z,4.4
2023-05-19T04:34:25.751Z,4.4
2023-05-19T04:35:25.748Z,4.5
2023-05-19T04:36:25.746Z,4.6
2023-05-19T04:37:25.739Z,4.7
2023-05-19T04:38:25.739Z,4.7
2023-05-19T04:39:26.094Z,4.8
2023-05-19T04:40:28.876Z,4.8
2023-05-19T04:41:31.808Z,4.8
2023-05-19T04:42:25.743Z,4.8
2023-05-19T04:43:25.758Z,4.9
2023-05-19T04:44:25.739Z,4.9
2023-05-19T04:45:25.756Z,5
2023-05-19T04:46:25.772Z,5.1
2023-05-19T04:47:25.769Z,5.2
2023-05-19T04:48:25.764Z,5.4
2023-05-19T04:49:25.746Z,5.6
2023-05-19T04:50:25.746Z,5.8
2023-05-19T04:51:25.742Z,6.1
2023-05-19T04:52:25.748Z,6.3
2023-05-19T04:53:25.783Z,6.5
2023-05-19T04:54:25.752Z,6.7
2023-05-19T04:55:25.746Z,7
2023-05-19T04:56:25.741Z,7.2
2023-05-19T04:57:25.751Z,7.3
2023-05-19T04:58:25.797Z,7.5
2023-05-19T04:59:25.752Z,7.5
2023-05-19T05:00:25.745Z,7.7
2023-05-19T05:01:29.010Z,7.8
2023-05-19T05:02:31.912Z,7.9
2023-05-19T05:03:25.825Z,8.1
2023-05-19T05:04:25.768Z,8.2
2023-05-19T05:05:25.754Z,8.3
2023-05-19T05:06:25.749Z,8.4
2023-05-19T05:07:25.748Z,8.4
2023-05-19T05:08:25.737Z,8.5
2023-05-19T05:09:25.734Z,8.5
2023-05-19T05:10:25.739Z,8.5
2023-05-19T05:11:25.748Z,8.5
2023-05-19T05:12:25.749Z,8.6
2023-05-19T05:13:25.734Z,8.6
2023-05-19T05:14:25.739Z,8.6
2023-05-19T05:15:25.734Z,8.6
2023-05-19T05:16:25.790Z,8.6
2023-05-19T05:17:25.826Z,8.6
2023-05-19T05:18:25.743Z,8.5
2023-05-19T05:19:25.790Z,8.5
2023-05-19T05:20:25.737Z,8.5
2023-05-19T05:21:26.172Z,8.4
2023-05-19T05:22:28.970Z,8.4
2023-05-19T05:23:31.921Z,8.4
2023-05-19T05:24:25.740Z,8.4
2023-05-19T05:25:25.739Z,8.4
2023-05-19T05:26:25.737Z,8.4
2023-05-19T05:27:25.732Z,8.4
2023-05-19T05:28:25.764Z,8.4
2023-05-19T05:29:25.738Z,8.4
2023-05-19T05:30:25.741Z,8.4
2023-05-19T05:31:25.740Z,8.4
2023-05-19T05:32:25.837Z,8.4
2023-05-19T05:33:25.759Z,8.4
2023-05-19T05:34:25.729Z,8.4
2023-05-19T05:35:25.738Z,8.4
2023-05-19T05:36:25.741Z,8.4
2023-05-19T05:37:25.735Z,8.4
2023-05-19T05:38:25.736Z,8.4
2023-05-19T05:39:25.733Z,8.4
2023-05-19T05:40:25.743Z,8.4
2023-05-19T05:41:25.735Z,8.4
2023-05-19T05:42:27.653Z,8.4
2023-05-19T05:43:29.109Z,8.5
2023-05-19T05:44:32.074Z,8.5
2023-05-19T05:45:25.747Z,8.6
2023-05-19T05:46:25.763Z,8.6
2023-05-19T05:47:25.756Z,8.6
2023-05-19T05:48:25.739Z,8.7
2023-05-19T05:49:25.765Z,8.7
2023-05-19T05:51:25.743Z,8.8
2023-05-19T05:52:25.734Z,8.8
2023-05-19T05:53:25.895Z,8.8
2023-05-19T05:54:25.764Z,8.9
2023-05-19T05:55:25.743Z,8.9
2023-05-19T05:56:25.748Z,9
2023-05-19T05:57:25.752Z,9
2023-05-19T05:58:25.743Z,9
2023-05-19T05:59:25.760Z,9.1
2023-05-19T06:00:25.736Z,9.1
2023-05-19T06:01:25.766Z,9.2
2023-05-19T06:02:25.822Z,9.3
2023-05-19T06:03:25.775Z,9.5
2023-05-19T06:04:27.515Z,9.5
2023-05-19T06:05:30.592Z,9.6
2023-05-19T06:06:25.745Z,9.8
2023-05-19T06:07:25.745Z,9.9
2023-05-19T06:08:25.748Z,10.1
2023-05-19T06:09:25.771Z,10.3
2023-05-19T06:10:25.739Z,10.5
2023-05-19T06:11:25.736Z,10.6
2023-05-19T06:12:25.738Z,10.8
2023-05-19T06:13:25.774Z,11
2023-05-19T06:14:25.767Z,11.1
2023-05-19T06:15:25.743Z,11.2
2023-05-19T06:16:25.828Z,11.3
2023-05-19T06:17:25.756Z,11.3
2023-05-19T06:18:25.742Z,11.3
2023-05-19T06:19:25.799Z,11.3
2023-05-19T06:20:25.746Z,11.2
2023-05-19T06:21:25.747Z,11.2
2023-05-19T06:22:25.740Z,11.1
2023-05-19T06:23:25.742Z,11.1
2023-05-19T06:24:26.861Z,11.1
2023-05-19T06:25:29.335Z,11
2023-05-19T06:26:32.291Z,11
2023-05-19T06:27:25.750Z,10.9
2023-05-19T06:28:25.747Z,10.9
2023-05-19T06:29:25.783Z,10.8
2023-05-19T06:30:25.752Z,10.8
2023-05-19T06:31:25.750Z,10.7
2023-05-19T06:32:25.746Z,10.7
2023-05-19T06:33:28.209Z,10.6
2023-05-19T06:34:25.762Z,10.6
2023-05-19T06:35:25.742Z,10.6
2023-05-19T06:36:25.736Z,10.6
2023-05-19T06:37:25.734Z,10.6
2023-05-19T06:38:25.744Z,10.6
2023-05-19T06:39:25.753Z,10.6
2023-05-19T06:40:25.749Z,10.6
2023-05-19T06:41:25.752Z,10.6
2023-05-19T06:42:25.739Z,10.6
2023-05-19T06:43:25.792Z,10.6
2023-05-19T06:44:25.738Z,10.6
2023-05-19T06:45:26.637Z,10.6
2023-05-19T06:46:29.449Z,10.6
2023-05-19T06:47:32.411Z,10.6
2023-05-19T06:48:25.761Z,10.6
2023-05-19T06:49:25.742Z,10.6
2023-05-19T06:50:25.754Z,10.7
2023-05-19T06:51:25.747Z,10.7
2023-05-19T06:52:25.753Z,10.7
2023-05-19T06:53:25.745Z,10.7
2023-05-19T06:54:25.749Z,10.8
2023-05-19T06:55:25.741Z,10.8
2023-05-19T06:56:25.755Z,10.8
2023-05-19T06:57:25.756Z,10.8
2023-05-19T06:58:25.742Z,10.9
2023-05-19T06:59:25.747Z,10.9
2023-05-19T07:00:25.750Z,11
2023-05-19T07:01:25.834Z,11
2023-05-19T07:02:25.760Z,11.1
2023-05-19T07:03:25.767Z,11.1
2023-05-19T07:04:25.747Z,11.1
2023-05-19T07:05:25.760Z,11.2
2023-05-19T07:06:26.726Z,11.2
2023-05-19T07:07:29.491Z,11.2
2023-05-19T07:08:26.689Z,11.3
2023-05-19T07:09:32.549Z,11.3
2023-05-19T07:10:25.736Z,11.3
2023-05-19T07:11:25.744Z,11.4
2023-05-19T07:12:25.745Z,11.4
2023-05-19T07:13:27.299Z,11.4
2023-05-19T07:14:25.747Z,11.5
2023-05-19T07:15:25.744Z,11.5
2023-05-19T07:16:25.791Z,11.5
2023-05-19T07:17:25.760Z,11.6
2023-05-19T07:18:25.762Z,11.6
2023-05-19T07:19:25.805Z,11.7
2023-05-19T07:20:25.842Z,11.7
2023-05-19T07:21:25.754Z,11.7
2023-05-19T07:22:25.738Z,11.7
2023-05-19T07:23:25.751Z,11.8
2023-05-19T07:24:25.742Z,11.8
2023-05-19T07:25:25.748Z,11.9
2023-05-19T07:26:25.743Z,11.9
2023-05-19T07:27:25.739Z,12
2023-05-19T07:28:26.839Z,12
2023-05-19T07:29:29.648Z,12
2023-05-19T07:30:32.848Z,12.1
2023-05-19T07:31:25.852Z,12.2
2023-05-19T07:32:25.827Z,12.2
2023-05-19T07:33:25.740Z,12.3
2023-05-19T07:34:25.770Z,12.3
2023-05-19T07:35:25.742Z,12.4
2023-05-19T07:36:25.766Z,12.5
2023-05-19T07:37:25.740Z,12.5
2023-05-19T07:38:25.745Z,12.6
2023-05-19T07:39:25.793Z,12.6
2023-05-19T07:40:25.792Z,12.7
2023-05-19T07:41:25.763Z,12.8
2023-05-19T07:42:25.741Z,12.8
2023-05-19T07:43:25.740Z,12.9
2023-05-19T07:44:25.745Z,12.9
2023-05-19T07:45:25.754Z,12.9
2023-05-19T07:46:25.838Z,13
2023-05-19T07:47:25.901Z,13
2023-05-19T07:48:25.784Z,13.1
2023-05-19T07:49:26.969Z,13.1
2023-05-19T07:50:29.846Z,13.1
2023-05-19T07:51:32.397Z,13.1
2023-05-19T07:52:25.738Z,13.1
2023-05-19T07:53:25.850Z,13.1
2023-05-19T07:55:25.752Z,13.2
2023-05-19T07:56:25.748Z,13.3
2023-05-19T07:57:25.740Z,13.3
2023-05-19T07:58:25.767Z,13.4
2023-05-19T07:59:25.736Z,13.4
2023-05-19T08:00:25.729Z,13.5
2023-05-19T08:01:25.739Z,13.5
2023-05-19T08:02:25.770Z,13.6
2023-05-19T08:03:25.902Z,13.6
2023-05-19T08:04:25.793Z,13.7
2023-05-19T08:05:25.776Z,13.7
2023-05-19T08:06:25.739Z,13.7
2023-05-19T08:07:25.736Z,13.8
2023-05-19T08:08:25.741Z,13.8
2023-05-19T08:09:25.749Z,13.9
2023-05-19T08:10:27.001Z,13.9
2023-05-19T08:11:29.964Z,13.9
2023-05-19T08:12:32.962Z,14
2023-05-19T08:13:25.732Z,14.1
2023-05-19T08:14:25.887Z,14.1
2023-05-19T08:15:25.850Z,14.2
2023-05-19T08:16:25.812Z,14.2
2023-05-19T08:17:25.780Z,14.3
2023-05-19T08:18:25.957Z,14.4
2023-05-19T08:19:25.763Z,14.4
2023-05-19T08:20:25.739Z,14.4
2023-05-19T08:21:25.743Z,14.4
2023-05-19T08:22:25.752Z,14.5
2023-05-19T08:23:25.754Z,14.5
2023-05-19T08:24:25.769Z,14.6
2023-05-19T08:25:25.743Z,14.6
2023-05-19T08:26:25.736Z,14.6
2023-05-19T08:27:25.764Z,14.7
2023-05-19T08:28:25.748Z,14.7
2023-05-19T08:29:25.768Z,14.7
2023-05-19T08:30:25.742Z,14.8
2023-05-19T08:31:27.027Z,14.8
2023-05-19T08:32:29.977Z,14.8
2023-05-19T08:33:33.047Z,14.9
2023-05-19T08:34:25.774Z,14.9
2023-05-19T08:35:25.906Z,15
2023-05-19T08:36:25.763Z,15.1
2023-05-19T08:37:25.739Z,15.2
2023-05-19T08:38:25.762Z,15.2
2023-05-19T08:39:25.759Z,15.3
2023-05-19T08:40:25.761Z,15.3
2023-05-19T08:41:25.751Z,15.3
2023-05-19T08:42:25.760Z,15.4
2023-05-19T08:43:25.744Z,15.4
2023-05-19T08:44:25.763Z,15.4
2023-05-19T08:45:25.748Z,15.4
2023-05-19T08:46:25.754Z,15.4
2023-05-19T08:47:25.754Z,15.4
2023-05-19T08:48:25.762Z,15.5
2023-05-19T08:49:25.866Z,15.5
2023-05-19T08:50:25.749Z,15.5
2023-05-19T08:51:25.753Z,15.6
2023-05-19T08:52:27.193Z,15.6
2023-05-19T08:53:33.565Z,15.6
2023-05-19T08:54:33.129Z,15.6
2023-05-19T08:55:25.995Z,15.6
2023-05-19T08:56:25.752Z,15.6
2023-05-19T08:57:25.758Z,15.6
2023-05-19T08:58:26.797Z,15.6
2023-05-19T08:59:25.752Z,15.7
2023-05-19T09:00:25.751Z,15.7
2023-05-19T09:01:25.765Z,15.8
2023-05-19T09:02:25.758Z,15.8
2023-05-19T09:03:25.844Z,15.8
2023-05-19T09:04:26.488Z,15.8
2023-05-19T09:05:25.765Z,15.8
2023-05-19T09:06:25.805Z,15.8
2023-05-19T09:07:25.746Z,15.9
2023-05-19T09:08:25.757Z,16
2023-05-19T09:09:25.753Z,16
2023-05-19T09:10:27.149Z,16
2023-05-19T09:11:25.749Z,16.1
2023-05-19T09:12:25.739Z,16.1
2023-05-19T09:13:27.276Z,16.1
2023-05-19T09:14:30.334Z,16.2
2023-05-19T09:15:33.509Z,16.2
2023-05-19T09:16:27.767Z,16.3
2023-05-19T09:17:25.770Z,16.3
2023-05-19T09:18:25.749Z,16.4
2023-05-19T09:19:25.794Z,16.4
2023-05-19T09:20:25.741Z,16.5
2023-05-19T09:21:25.734Z,16.5
2023-05-19T09:22:25.748Z,16.5
2023-05-19T09:23:25.743Z,16.5
2023-05-19T09:24:25.779Z,16.6
2023-05-19T09:25:25.741Z,16.6
2023-05-19T09:26:25.766Z,16.6
2023-05-19T09:27:25.851Z,16.6
2023-05-19T09:28:25.739Z,16.7
2023-05-19T09:29:25.733Z,16.7
2023-05-19T09:30:25.744Z,16.8
2023-05-19T09:31:25.740Z,16.8
2023-05-19T09:32:25.815Z,16.8
2023-05-19T09:33:25.760Z,16.8
2023-05-19T09:34:27.307Z,16.8
2023-05-19T09:35:30.452Z,16.8
2023-05-19T09:36:33.277Z,16.8
2023-05-19T09:37:25.751Z,16.9
2023-05-19T09:38:25.744Z,16.9
2023-05-19T09:39:25.747Z,17
2023-05-19T09:40:25.739Z,17
2023-05-19T09:41:25.741Z,17
2023-05-19T09:42:25.734Z,17
2023-05-19T09:43:25.736Z,17.2
2023-05-19T09:44:25.748Z,17.2
2023-05-19T09:45:25.741Z,17.3
2023-05-19T09:46:25.771Z,17.3
2023-05-19T09:47:25.816Z,17.3
2023-05-19T09:48:25.738Z,17.4
2023-05-19T09:49:25.735Z,17.4
2023-05-19T09:50:25.733Z,17.5
2023-05-19T09:51:25.740Z,17.5
2023-05-19T09:52:25.740Z,17.6
2023-05-19T09:53:25.760Z,17.6
2023-05-19T09:54:25.759Z,17.6
2023-05-19T09:55:27.384Z,17.6
2023-05-19T09:56:30.398Z,17.6
2023-05-19T09:57:32.779Z,17.6
2023-05-19T09:58:25.762Z,17.6
2023-05-19T09:59:25.755Z,17.6
2023-05-19T10:00:25.739Z,17.6
2023-05-19T10:01:25.756Z,17.6
2023-05-19T10:02:25.766Z,17.7
2023-05-19T10:03:25.755Z,17.7
2023-05-19T10:04:25.797Z,17.7
2023-05-19T10:05:25.929Z,17.8
2023-05-19T10:06:25.739Z,17.8
2023-05-19T10:07:25.743Z,17.8
2023-05-19T10:08:25.740Z,17.8
2023-05-19T10:09:25.758Z,17.8
2023-05-19T10:10:25.742Z,17.8
2023-05-19T10:11:25.743Z,17.8
2023-05-19T10:12:25.738Z,17.8
2023-05-19T10:13:25.730Z,17.8
2023-05-19T10:14:25.778Z,17.8
2023-05-19T10:15:25.741Z,17.8
2023-05-19T10:16:27.530Z,17.8
2023-05-19T10:17:30.567Z,17.8
2023-05-19T10:19:25.870Z,17.8
2023-05-19T10:20:25.737Z,17.8
2023-05-19T10:21:25.821Z,17.9
2023-05-19T10:22:25.821Z,17.9
2023-05-19T10:23:25.746Z,17.9
2023-05-19T10:24:25.740Z,18
2023-05-19T10:25:25.742Z,18
2023-05-19T10:26:25.811Z,18.1
2023-05-19T10:27:25.735Z,18.1
2023-05-19T10:28:25.809Z,18.1
2023-05-19T10:29:25.766Z,18.2
2023-05-19T10:30:25.753Z,18.2
2023-05-19T10:31:25.755Z,18.2
2023-05-19T10:32:25.815Z,18.2
2023-05-19T10:33:25.799Z,18.1
2023-05-19T10:34:25.734Z,18.2
2023-05-19T10:35:25.740Z,18.2
2023-05-19T10:36:25.744Z,18.3
2023-05-19T10:37:27.527Z,18.3
2023-05-19T10:38:30.564Z,18.3
2023-05-19T10:40:25.798Z,18.4
2023-05-19T10:41:25.788Z,18.4
2023-05-19T10:42:25.757Z,18.4
2023-05-19T10:43:25.752Z,18.4
2023-05-19T10:44:25.755Z,18.4
2023-05-19T10:45:25.748Z,18.5
2023-05-19T10:46:25.756Z,18.5
2023-05-19T10:47:25.865Z,18.5
2023-05-19T10:48:25.774Z,18.7
2023-05-19T10:49:25.858Z,18.7
2023-05-19T10:50:25.737Z,18.7
2023-05-19T10:51:25.738Z,18.8
2023-05-19T10:52:26.084Z,18.8
2023-05-19T10:53:25.781Z,18.8
2023-05-19T10:54:25.742Z,18.8
2023-05-19T10:55:25.742Z,18.8
2023-05-19T10:56:25.748Z,18.8
2023-05-19T10:57:25.749Z,18.8
2023-05-19T10:58:25.748Z,18.7
2023-05-19T10:59:27.923Z,18.7
2023-05-19T11:00:29.858Z,18.7
2023-05-19T11:01:25.788Z,18.7
2023-05-19T11:02:25.843Z,18.7
2023-05-19T11:03:25.800Z,18.7
2023-05-19T11:04:25.783Z,18.7
2023-05-19T11:05:25.742Z,18.8
2023-05-19T11:06:25.758Z,18.8
2023-05-19T11:07:25.795Z,18.8
2023-05-19T11:08:25.761Z,18.9
2023-05-19T11:09:34.331Z,18.9
2023-05-19T11:10:25.757Z,19
2023-05-19T11:11:25.742Z,19
2023-05-19T11:12:25.733Z,19
2023-05-19T11:13:26.199Z,19.1
2023-05-19T11:14:25.749Z,19.1
2023-05-19T11:15:25.745Z,19.1
2023-05-19T11:16:25.754Z,19
2023-05-19T11:17:25.772Z,19
2023-05-19T11:18:25.757Z,18.9
2023-05-19T11:19:25.831Z,18.9
2023-05-19T11:20:27.951Z,18.9
2023-05-19T11:21:31.027Z,18.9
2023-05-19T11:22:25.746Z,18.9
2023-05-19T11:23:25.816Z,18.9
2023-05-19T11:24:25.742Z,18.9
2023-05-19T11:25:25.748Z,18.9
2023-05-19T11:26:25.755Z,18.9
2023-05-19T11:27:25.801Z,18.8
2023-05-19T11:28:25.759Z,18.8
2023-05-19T11:29:25.747Z,18.7
2023-05-19T11:30:25.743Z,18.7
2023-05-19T11:31:25.756Z,18.8
2023-05-19T11:32:25.838Z,18.8
2023-05-19T11:33:25.756Z,18.8
2023-05-19T11:34:25.749Z,18.8
2023-05-19T11:35:25.742Z,18.9
2023-05-19T11:36:25.737Z,18.9
2023-05-19T11:37:25.751Z,18.9
2023-05-19T11:38:25.774Z,18.9
2023-05-19T11:39:25.750Z,18.9
2023-05-19T11:40:25.752Z,18.9
2023-05-19T11:41:27.988Z,18.9
2023-05-19T11:42:30.988Z,19
2023-05-19T11:43:25.865Z,19
2023-05-19T11:44:25.753Z,19
2023-05-19T11:45:25.745Z,19
2023-05-19T11:46:25.782Z,18.9
2023-05-19T11:47:25.783Z,19
2023-05-19T11:48:26.004Z,19
2023-05-19T11:49:25.732Z,19
2023-05-19T11:50:25.739Z,19
2023-05-19T11:51:25.758Z,19
2023-05-19T11:52:25.893Z,19.1
2023-05-19T11:53:25.759Z,19.1
2023-05-19T11:54:25.739Z,19.1
2023-05-19T11:55:25.738Z,19.2
2023-05-19T11:56:25.741Z,19.2
2023-05-19T11:57:25.748Z,19.3
2023-05-19T11:58:25.752Z,19.3
2023-05-19T11:59:25.796Z,19.3
2023-05-19T12:00:25.738Z,19.3
2023-05-19T12:01:25.751Z,19.3
2023-05-19T12:02:28.183Z,19.3
2023-05-19T12:03:31.093Z,19.3
2023-05-19T12:04:26.014Z,19.3
2023-05-19T12:05:26.181Z,19.4
2023-05-19T12:06:25.749Z,19.4
2023-05-19T12:07:25.738Z,19.5
2023-05-19T12:08:25.734Z,19.5
2023-05-19T12:09:25.965Z,19.5
2023-05-19T12:10:25.749Z,19.5
2023-05-19T12:11:25.751Z,19.7
2023-05-19T12:12:25.745Z,19.7
2023-05-19T12:13:25.737Z,19.7
2023-05-19T12:14:25.762Z,19.7
2023-05-19T12:15:25.742Z,19.5
2023-05-19T12:16:25.815Z,19.5
2023-05-19T12:17:25.802Z,19.4
2023-05-19T12:18:25.754Z,19.4
2023-05-19T12:19:26.056Z,19.3
2023-05-19T12:20:25.736Z,19.3
2023-05-19T12:21:25.735Z,19.3
2023-05-19T12:22:25.741Z,19.2
2023-05-19T12:23:28.178Z,19.2
2023-05-19T12:24:31.249Z,19.2
2023-05-19T12:25:25.749Z,19.1
2023-05-19T12:26:25.736Z,19
2023-05-19T12:27:25.738Z,19
2023-05-19T12:28:25.746Z,19
2023-05-19T12:29:26.172Z,19
2023-05-19T12:30:25.748Z,19.1
2023-05-19T12:31:25.851Z,19
2023-05-19T12:32:25.850Z,19.1
2023-05-19T12:33:25.739Z,19.1
2023-05-19T12:34:25.742Z,19.2
2023-05-19T12:35:25.739Z,19.2
2023-05-19T12:36:25.832Z,19.2
2023-05-19T12:37:25.747Z,19.2
2023-05-19T12:38:25.744Z,19.2
2023-05-19T12:39:25.741Z,19.1
2023-05-19T12:40:25.890Z,19.1
2023-05-19T12:41:25.743Z,19.1
2023-05-19T12:42:25.747Z,19.1
2023-05-19T12:43:25.746Z,19.1
2023-05-19T12:44:27.936Z,19.1
2023-05-19T12:45:31.423Z,19.1
2023-05-19T12:46:25.754Z,19.2
2023-05-19T12:47:25.765Z,19.2
2023-05-19T12:48:25.739Z,19.2
2023-05-19T12:49:25.741Z,19.3
2023-05-19T12:50:25.751Z,19.3
2023-05-19T12:51:25.739Z,19.3
2023-05-19T12:52:25.735Z,19.3
2023-05-19T12:53:25.751Z,19.3
2023-05-19T12:54:25.783Z,19.3
2023-05-19T12:55:25.746Z,19.3
2023-05-19T12:56:25.752Z,19.3
2023-05-19T12:57:25.769Z,19.3
2023-05-19T12:58:25.737Z,19.3
2023-05-19T12:59:37.187Z,19.3
2023-05-19T13:00:25.831Z,19.3
2023-05-19T13:01:25.958Z,19.3
2023-05-19T13:02:25.836Z,19.3
2023-05-19T13:03:25.881Z,19.3
2023-05-19T13:04:25.735Z,19.3
2023-05-19T13:05:27.964Z,19.3
2023-05-19T13:06:31.421Z,19.3
2023-05-19T13:07:25.740Z,19.3
2023-05-19T13:08:25.768Z,19.2
2023-05-19T13:09:25.751Z,19.2
2023-05-19T13:10:25.738Z,19.2
2023-05-19T13:11:25.747Z,19.2
2023-05-19T13:12:25.740Z,19.2
2023-05-19T13:13:25.756Z,19.2
2023-05-19T13:14:25.749Z,19.2
2023-05-19T13:15:25.747Z,19.3
2023-05-19T13:16:25.801Z,19.3
2023-05-19T13:17:25.785Z,19.4
2023-05-19T13:18:25.749Z,19.4
2023-05-19T13:19:26.306Z,19.4
2023-05-19T13:20:28.303Z,19.5
2023-05-19T13:21:25.763Z,19.5
2023-05-19T13:22:25.748Z,19.5
2023-05-19T13:23:25.739Z,19.7
2023-05-19T13:24:25.738Z,19.8
2023-05-19T13:25:25.756Z,19.8
2023-05-19T13:26:28.521Z,19.8
2023-05-19T13:27:31.452Z,19.9
2023-05-19T13:28:25.743Z,19.9
2023-05-19T13:29:25.743Z,19.9
2023-05-19T13:30:25.741Z,19.8
2023-05-19T13:31:25.790Z,19.8
2023-05-19T13:32:25.736Z,19.7
2023-05-19T13:33:25.745Z,19.7
2023-05-19T13:34:25.744Z,19.7
2023-05-19T13:35:25.771Z,19.7
2023-05-19T13:36:25.742Z,19.8
2023-05-19T13:37:25.746Z,19.8
2023-05-19T13:38:25.738Z,19.9
2023-05-19T13:39:25.761Z,20
2023-05-19T13:40:25.743Z,20
2023-05-19T13:41:25.746Z,20
2023-05-19T13:42:25.758Z,20.1
2023-05-19T13:43:25.732Z,20.1